Time;durP1;ratioP1;P1;durP2;ratioP2;P2;SDS_P1;SDS_P2;PMS_P1;PMS_P2;Temp;Humidity;BMP_temperature;BMP_pressure;BME280_temperature;BME280_humidity;BME280_pressure;Samples;Min_cycle;Max_cycle;Signal;HPM_P1;HPM_P2
2021/12/28 00:02:26;;;;;;;36.40;20.35;;;;;;;1.04;100.00;99956.16;10136366;28;20047;-71
2021/12/28 00:07:23;;;;;;;34.40;17.92;;;;;;;1.05;100.00;99955.88;10147607;28;20046;-71
2021/12/28 00:12:20;;;;;;;32.80;18.17;;;;;;;1.07;100.00;99949.41;10144461;28;20038;-71
2021/12/28 00:22:31;;;;;;;32.42;17.95;;;;;;;1.11;100.00;99953.16;10134260;28;20625;-72
2021/12/28 00:27:28;;;;;;;32.25;18.00;;;;;;;1.05;100.00;99937.03;10124280;28;20467;-72
2021/12/28 00:32:24;;;;;;;28.73;16.65;;;;;;;1.17;100.00;99939.44;10108298;28;20494;-72
2021/12/28 00:37:21;;;;;;;30.83;18.13;;;;;;;1.18;100.00;99932.16;10145331;28;20046;-72
2021/12/28 00:42:17;;;;;;;32.05;17.92;;;;;;;1.10;100.00;99927.34;10130069;28;20467;-71
2021/12/28 00:47:14;;;;;;;31.83;17.17;;;;;;;1.17;100.00;99927.84;10133511;28;20070;-71
2021/12/28 00:52:11;;;;;;;30.48;18.35;;;;;;;1.07;100.00;99933.25;10146636;28;20103;-69
2021/12/28 00:57:07;;;;;;;30.80;17.48;;;;;;;1.07;100.00;99917.09;10140373;28;20418;-69
2021/12/28 01:02:04;;;;;;;32.78;17.20;;;;;;;1.14;100.00;99917.63;10134016;28;20812;-69
2021/12/28 01:07:00;;;;;;;30.80;16.02;;;;;;;1.18;100.00;99907.91;10142745;28;20049;-69
2021/12/28 01:12:04;;;;;;;33.17;18.88;;;;;;;1.13;100.00;99903.34;10147287;28;20046;-72
2021/12/28 01:17:01;;;;;;;30.40;17.25;;;;;;;1.12;100.00;99903.66;10133691;28;20050;-72
2021/12/28 01:22:01;;;;;;;35.47;18.73;;;;;;;1.10;100.00;99900.41;10138445;28;20619;-72
2021/12/28 01:26:58;;;;;;;28.15;16.42;;;;;;;1.20;100.00;99906.56;10141819;28;20554;-69
2021/12/28 01:31:54;;;;;;;30.85;17.20;;;;;;;1.20;100.00;99903.06;10146639;28;20128;-72
2021/12/28 01:36:51;;;;;;;27.77;15.80;;;;;;;1.04;100.00;99892.38;10140644;28;20054;-73
2021/12/28 01:41:48;;;;;;;35.25;18.77;;;;;;;1.03;100.00;99893.44;10136074;28;20121;-71
2021/12/28 01:46:44;;;;;;;36.15;17.75;;;;;;;0.88;100.00;99896.16;10132600;28;20084;-71
2021/12/28 01:51:41;;;;;;;29.75;16.58;;;;;;;1.04;100.00;99888.84;10116885;28;20564;-70
2021/12/28 01:56:40;;;;;;;30.92;18.17;;;;;;;1.02;100.00;99886.44;10121999;28;20070;-71
2021/12/28 02:01:38;;;;;;;33.50;17.25;;;;;;;0.96;100.00;99887.53;10138607;28;20069;-69
2021/12/28 02:06:35;;;;;;;31.75;18.35;;;;;;;0.99;100.00;99873.50;10137226;28;20414;-69
2021/12/28 02:11:31;;;;;;;33.35;18.27;;;;;;;1.10;100.00;99876.19;10148879;28;20042;-69
2021/12/28 02:16:28;;;;;;;35.17;17.45;;;;;;;1.20;100.00;99862.66;10146737;28;20078;-68
2021/12/28 02:21:25;;;;;;;32.20;16.85;;;;;;;1.30;100.00;99856.41;10142268;28;20038;-69
2021/12/28 02:26:22;;;;;;;30.52;17.08;;;;;;;1.27;100.00;99842.44;10141253;28;20046;-69
2021/12/28 02:31:19;;;;;;;30.20;16.17;;;;;;;1.27;100.00;99841.63;10131324;28;20046;-69
2021/12/28 02:36:16;;;;;;;30.58;17.02;;;;;;;1.28;100.00;99843.25;10135787;28;20053;-69
2021/12/28 02:41:14;;;;;;;32.17;18.00;;;;;;;1.27;100.00;99836.25;10138484;28;20050;-69
2021/12/28 02:46:10;;;;;;;35.42;18.10;;;;;;;1.32;100.00;99836.22;10140011;28;20062;-68
2021/12/28 02:51:12;;;;;;;34.45;19.27;;;;;;;1.34;100.00;99828.66;10130398;28;20119;-70
2021/12/28 02:56:09;;;;;;;34.63;18.20;;;;;;;1.31;100.00;99837.31;10146231;28;20113;-69
2021/12/28 03:01:14;;;;;;;34.75;19.42;;;;;;;1.25;100.00;99830.31;10142257;28;20478;-69
2021/12/28 03:06:14;;;;;;;36.13;18.75;;;;;;;1.33;100.00;99829.75;10135453;28;20050;-69
2021/12/28 03:11:11;;;;;;;35.80;18.75;;;;;;;1.20;100.00;99830.34;10140644;28;20101;-70
2021/12/28 03:16:09;;;;;;;33.53;18.08;;;;;;;1.31;100.00;99831.13;10138238;28;20109;-70
2021/12/28 03:21:07;;;;;;;34.10;20.33;;;;;;;1.30;100.00;99824.94;10142525;28;20054;-70
2021/12/28 03:26:05;;;;;;;36.17;18.55;;;;;;;1.21;100.00;99818.53;10135211;28;20129;-68
2021/12/28 03:31:05;;;;;;;38.47;19.27;;;;;;;1.34;100.00;99815.19;10130586;28;20050;-68
2021/12/28 03:36:04;;;;;;;33.28;18.80;;;;;;;1.41;100.00;99804.91;10130832;28;20046;-68
2021/12/28 03:41:02;;;;;;;37.10;20.13;;;;;;;1.27;100.00;99793.16;10136800;28;20078;-71
2021/12/28 03:45:59;;;;;;;35.67;19.25;;;;;;;1.32;100.00;99784.25;10139904;28;20134;-69
2021/12/28 03:50:55;;;;;;;37.65;19.83;;;;;;;1.20;100.00;99777.31;10128378;28;20050;-68
2021/12/28 03:55:52;;;;;;;33.33;19.27;;;;;;;1.30;100.00;99763.00;10141432;28;20481;-69
2021/12/28 04:00:49;;;;;;;38.80;21.00;;;;;;;1.30;100.00;99754.91;10128300;28;20565;-68
2021/12/28 04:05:46;;;;;;;36.50;19.77;;;;;;;1.19;100.00;99746.09;10128727;28;20061;-70
2021/12/28 04:10:52;;;;;;;35.60;19.50;;;;;;;1.26;100.00;99748.47;10141115;28;20073;-68
2021/12/28 04:15:49;;;;;;;39.75;20.95;;;;;;;1.38;100.00;99745.41;10146787;28;20053;-70
2021/12/28 04:20:48;;;;;;;33.75;18.42;;;;;;;1.32;100.00;99751.91;10127172;28;20043;-71
2021/12/28 04:25:44;;;;;;;39.05;20.60;;;;;;;1.43;100.00;99748.88;10123982;28;20102;-71
2021/12/28 04:30:41;;;;;;;36.75;20.52;;;;;;;1.38;100.00;99746.22;10140603;28;20050;-72
2021/12/28 04:35:37;;;;;;;41.15;22.13;;;;;;;1.26;100.00;99727.72;10127787;28;20072;-72
2021/12/28 04:40:34;;;;;;;38.33;20.58;;;;;;;1.32;100.00;99717.72;10124548;28;20046;-70
2021/12/28 04:45:30;;;;;;;37.03;19.75;;;;;;;1.34;100.00;99715.53;10110224;28;20138;-71
2021/12/28 04:50:27;;;;;;;38.50;21.17;;;;;;;1.26;100.00;99716.16;10143899;28;20517;-72
2021/12/28 04:55:23;;;;;;;39.53;19.52;;;;;;;1.14;100.00;99712.97;10149389;28;20125;-72
2021/12/28 05:00:21;;;;;;;37.90;19.17;;;;;;;1.15;100.00;99718.09;10140656;28;20074;-72
2021/12/28 05:05:18;;;;;;;41.65;21.55;;;;;;;1.11;100.00;99713.56;10138989;28;20081;-72
2021/12/28 05:10:14;;;;;;;39.65;20.80;;;;;;;1.15;100.00;99714.59;10138225;28;20593;-72
2021/12/28 05:15:11;;;;;;;40.33;20.83;;;;;;;1.23;100.00;99708.63;10137161;28;20112;-70
2021/12/28 05:20:08;;;;;;;38.25;20.30;;;;;;;1.26;100.00;99705.38;10142183;28;20086;-71
2021/12/28 05:25:06;;;;;;;34.55;19.08;;;;;;;1.33;100.00;99705.88;10138983;28;20077;-71
2021/12/28 05:30:06;;;;;;;38.40;20.10;;;;;;;1.40;100.00;99700.16;10142881;28;20090;-70
2021/12/28 05:35:05;;;;;;;35.13;20.17;;;;;;;1.35;100.00;99700.22;10136846;28;20066;-71
2021/12/28 05:40:02;;;;;;;41.03;20.88;;;;;;;1.22;100.00;99699.75;10138235;28;20070;-68
2021/12/28 05:44:59;;;;;;;40.42;21.50;;;;;;;1.32;100.00;99682.69;10145385;28;20049;-69
2021/12/28 05:49:56;;;;;;;36.65;20.33;;;;;;;1.44;100.00;99690.44;10135485;28;20449;-68
2021/12/28 05:54:52;;;;;;;38.95;20.98;;;;;;;1.50;100.00;99693.88;10144530;28;20070;-69
2021/12/28 05:59:49;;;;;;;34.35;19.20;;;;;;;1.42;100.00;99693.41;10144066;28;20088;-68
2021/12/28 06:04:45;;;;;;;40.00;20.05;;;;;;;1.36;100.00;99688.34;10147062;28;20549;-67
2021/12/28 06:09:42;;;;;;;36.42;20.30;;;;;;;1.45;100.00;99687.44;10145400;28;20498;-68
2021/12/28 06:14:38;;;;;;;32.95;19.33;;;;;;;1.49;100.00;99689.59;10155269;28;20525;-69
2021/12/28 06:19:35;;;;;;;37.92;20.90;;;;;;;1.50;100.00;99688.50;10134971;28;20046;-69
2021/12/28 06:24:31;;;;;;;40.28;22.15;;;;;;;1.46;100.00;99683.69;10128485;28;20074;-70
2021/12/28 06:29:28;;;;;;;44.20;21.92;;;;;;;1.54;100.00;99681.47;10143964;28;20451;-69
2021/12/28 06:34:24;;;;;;;41.63;21.48;;;;;;;1.42;100.00;99688.00;10133267;28;20066;-69
2021/12/28 06:39:21;;;;;;;37.63;21.60;;;;;;;1.45;100.00;99687.44;10138474;28;20093;-69
2021/12/28 06:44:17;;;;;;;39.78;22.42;;;;;;;1.36;100.00;99680.25;10139446;28;20112;-69
2021/12/28 06:49:14;;;;;;;45.15;22.50;;;;;;;1.38;100.00;99684.28;10135872;28;20157;-69
2021/12/28 06:54:12;;;;;;;45.13;24.30;;;;;;;1.38;100.00;99676.19;10150641;28;20072;-69
2021/12/28 06:59:09;;;;;;;45.97;25.95;;;;;;;1.36;100.00;99667.59;10129171;28;20137;-70
2021/12/28 07:04:06;;;;;;;39.13;21.70;;;;;;;1.25;100.00;99668.75;10135239;28;20046;-69
2021/12/28 07:09:02;;;;;;;40.67;23.08;;;;;;;1.37;100.00;99669.22;10133778;28;20494;-71
2021/12/28 07:13:59;;;;;;;42.35;23.58;;;;;;;1.35;100.00;99660.59;10136460;28;20070;-69
2021/12/28 07:18:55;;;;;;;47.38;25.40;;;;;;;1.23;100.00;99657.44;10134957;28;20039;-70
2021/12/28 07:23:52;;;;;;;45.60;25.77;;;;;;;1.38;100.00;99659.22;10138677;28;20057;-70
2021/12/28 07:28:48;;;;;;;49.17;26.15;;;;;;;1.32;100.00;99655.75;10138292;28;20054;-69
2021/12/28 07:33:45;;;;;;;49.50;25.02;;;;;;;1.34;100.00;99658.97;10145289;28;20096;-70
2021/12/28 07:38:41;;;;;;;45.20;25.52;;;;;;;1.38;100.00;99664.63;10130152;28;20081;-69
2021/12/28 07:43:38;;;;;;;50.55;24.38;;;;;;;1.42;100.00;99658.38;10144613;28;20066;-70
2021/12/28 07:48:35;;;;;;;49.42;26.50;;;;;;;1.37;100.00;99657.59;10131554;28;20417;-69
2021/12/28 07:53:32;;;;;;;42.25;25.90;;;;;;;1.46;100.00;99645.13;10144182;28;20554;-70
2021/12/28 07:58:28;;;;;;;50.63;25.98;;;;;;;1.48;100.00;99653.75;10123633;28;20490;-70
2021/12/28 08:03:25;;;;;;;42.17;23.88;;;;;;;1.50;100.00;99650.78;10139467;28;20042;-70
2021/12/28 08:08:22;;;;;;;46.85;26.25;;;;;;;1.53;100.00;99644.81;10133179;28;20082;-70
2021/12/28 08:13:18;;;;;;;45.63;24.70;;;;;;;1.57;100.00;99640.47;10141712;28;20146;-70
2021/12/28 08:18:15;;;;;;;45.92;25.10;;;;;;;1.62;100.00;99635.03;10120566;28;20129;-70
2021/12/28 08:23:11;;;;;;;40.30;24.40;;;;;;;1.54;100.00;99628.38;10121794;28;20495;-70
2021/12/28 08:28:08;;;;;;;47.65;25.60;;;;;;;1.59;100.00;99625.63;10140794;28;20461;-70
2021/12/28 08:33:07;;;;;;;46.92;25.33;;;;;;;1.59;100.00;99627.53;10132702;28;20074;-70
2021/12/28 08:38:03;;;;;;;49.85;27.88;;;;;;;1.65;100.00;99611.03;10130964;28;20129;-70
2021/12/28 08:43:00;;;;;;;48.08;27.00;;;;;;;1.73;100.00;99612.28;10137278;28;20129;-70
2021/12/28 08:47:57;;;;;;;49.22;26.35;;;;;;;1.49;100.00;99614.16;10139093;28;20055;-70
2021/12/28 08:52:53;;;;;;;48.97;27.67;;;;;;;1.65;100.00;99607.53;10132212;28;20136;-70
2021/12/28 08:57:51;;;;;;;52.42;26.45;;;;;;;1.75;100.00;99626.28;10141384;28;20089;-70
2021/12/28 09:02:48;;;;;;;57.45;29.00;;;;;;;1.72;100.00;99613.38;10122123;28;20050;-70
2021/12/28 09:07:45;;;;;;;54.15;29.55;;;;;;;1.69;100.00;99603.16;10132711;28;20042;-70
2021/12/28 09:12:41;;;;;;;52.67;30.27;;;;;;;1.61;100.00;99601.09;10125767;28;20123;-69
2021/12/28 09:17:39;;;;;;;53.75;28.50;;;;;;;1.68;100.00;99596.97;10138897;28;20046;-70
2021/12/28 09:22:36;;;;;;;48.58;28.10;;;;;;;1.66;100.00;99603.72;10127994;28;20465;-70
2021/12/28 09:27:32;;;;;;;60.75;31.75;;;;;;;1.56;100.00;99611.94;10136343;28;20097;-70
2021/12/28 09:32:29;;;;;;;56.03;28.30;;;;;;;1.73;100.00;99612.28;10136357;28;20084;-70
2021/12/28 09:37:26;;;;;;;64.38;32.58;;;;;;;1.37;100.00;99593.78;10139020;28;20057;-70
2021/12/28 09:42:23;;;;;;;61.58;31.13;;;;;;;1.57;100.00;99591.97;10138074;28;20109;-70
2021/12/28 09:47:20;;;;;;;73.93;33.45;;;;;;;1.47;100.00;99572.13;10141341;28;20172;-70
2021/12/28 09:52:17;;;;;;;59.05;30.15;;;;;;;1.62;100.00;99578.44;10144948;28;20056;-70
2021/12/28 09:57:16;;;;;;;54.78;30.13;;;;;;;1.84;100.00;99573.34;10138184;28;20052;-70
2021/12/28 10:02:14;;;;;;;55.00;30.20;;;;;;;1.86;100.00;99573.06;10137004;28;20165;-70
2021/12/28 10:07:23;;;;;;;57.05;31.13;;;;;;;1.92;100.00;99573.81;10143420;28;20058;-70
2021/12/28 10:12:49;;;;;;;57.22;29.70;;;;;;;1.98;100.00;99556.47;10140181;28;20047;-70
2021/12/28 10:17:51;;;;;;;60.53;28.38;;;;;;;1.86;100.00;99552.31;10135256;28;20133;-69
2021/12/28 10:22:53;;;;;;;53.33;29.43;;;;;;;1.93;100.00;99551.13;10140691;28;20130;-69
2021/12/28 10:27:57;;;;;;;61.42;31.80;;;;;;;2.05;100.00;99548.84;10142484;28;20137;-70
2021/12/28 10:33:22;;;;;;;64.15;30.67;;;;;;;2.07;100.00;99541.28;10141285;28;20046;-70
2021/12/28 10:38:22;;;;;;;56.30;29.80;;;;;;;2.04;100.00;99533.75;10135869;28;20457;-70
2021/12/28 10:43:28;;;;;;;57.92;29.80;;;;;;;2.07;100.00;99535.88;10149556;28;20137;-69
2021/12/28 10:48:27;;;;;;;61.10;30.77;;;;;;;2.02;100.00;99517.03;10140817;28;20125;-67
2021/12/28 10:53:33;;;;;;;58.78;30.92;;;;;;;1.94;100.00;99515.81;10140811;28;20149;-68
2021/12/28 10:58:41;;;;;;;55.95;28.95;;;;;;;2.22;100.00;99522.16;10138121;28;21411;-68
2021/12/28 11:03:41;;;;;;;64.72;32.70;;;;;;;2.29;100.00;99509.13;10140535;28;20073;-69
2021/12/28 11:08:38;;;;;;;60.63;30.77;;;;;;;2.29;100.00;99498.31;10136704;28;20097;-70
2021/12/28 11:13:35;;;;;;;57.35;30.45;;;;;;;2.29;100.00;99501.03;10131026;28;20078;-69
2021/12/28 11:18:35;;;;;;;60.97;30.45;;;;;;;2.37;100.00;99479.88;10130417;28;20093;-70
2021/12/28 11:23:33;;;;;;;62.67;32.13;;;;;;;2.23;100.00;99477.13;10135745;28;20145;-69
2021/12/28 11:28:31;;;;;;;57.25;30.90;;;;;;;2.36;100.00;99470.19;10131767;28;20047;-69
2021/12/28 11:33:45;;;;;;;55.85;31.10;;;;;;;2.27;100.00;99454.66;10142686;28;20441;-69
2021/12/28 11:38:41;;;;;;;60.83;31.70;;;;;;;2.38;100.00;99449.13;10143119;28;20576;-69
2021/12/28 11:43:39;;;;;;;62.65;31.25;;;;;;;2.45;100.00;99430.66;10133646;28;20391;-70
2021/12/28 11:48:38;;;;;;;61.75;31.73;;;;;;;2.51;100.00;99422.19;10137048;28;20121;-70
2021/12/28 11:53:42;;;;;;;60.08;32.13;;;;;;;2.53;100.00;99413.81;10142191;28;20521;-69
2021/12/28 11:58:52;;;;;;;59.35;28.88;;;;;;;2.59;100.00;99415.31;10137593;28;20085;-69
2021/12/28 12:03:49;;;;;;;61.97;31.58;;;;;;;2.46;100.00;99416.06;10133411;28;20717;-70
2021/12/28 12:09:06;;;;;;;64.82;31.63;;;;;;;2.48;100.00;99428.19;10138294;28;20113;-70
2021/12/28 12:14:02;;;;;;;60.72;30.70;;;;;;;2.47;100.00;99415.78;10127575;28;20054;-70
2021/12/28 12:18:59;;;;;;;58.45;31.25;;;;;;;2.62;100.00;99401.22;10133846;28;20085;-70
2021/12/28 12:24:35;;;;;;;61.65;30.30;;;;;;;2.51;100.00;99387.09;10135817;28;20046;-71
2021/12/28 12:29:31;;;;;;;63.50;31.15;;;;;;;2.42;100.00;99385.41;10142433;28;20125;-71
2021/12/28 12:34:32;;;;;;;62.80;33.15;;;;;;;2.45;100.00;99390.19;10125118;28;20053;-68
2021/12/28 12:39:38;;;;;;;62.15;31.30;;;;;;;2.57;100.00;99379.72;10129088;28;20048;-69
2021/12/28 12:44:38;;;;;;;60.42;32.20;;;;;;;2.56;100.00;99375.44;10132453;28;20545;-66
2021/12/28 12:49:34;;;;;;;63.08;33.17;;;;;;;2.57;100.00;99363.53;10134771;28;20070;-67
2021/12/28 12:54:48;;;;;;;64.30;34.03;;;;;;;2.42;100.00;99355.72;10150059;28;20096;-69
2021/12/28 12:59:48;;;;;;;62.28;31.42;;;;;;;2.44;100.00;99342.75;10100131;28;20047;-68
2021/12/28 13:04:48;;;;;;;62.00;32.38;;;;;;;2.53;100.00;99332.84;10130470;28;20141;-69
2021/12/28 13:09:54;;;;;;;65.60;34.50;;;;;;;2.49;100.00;99310.25;10138047;28;20042;-68
2021/12/28 13:14:51;;;;;;;62.08;33.00;;;;;;;2.54;100.00;99302.06;10128286;28;20085;-68
2021/12/28 13:20:02;;;;;;;59.08;31.50;;;;;;;2.56;100.00;99305.28;10134091;28;20109;-69
2021/12/28 13:24:59;;;;;;;65.70;32.80;;;;;;;2.60;100.00;99306.28;10140331;28;20524;-69
2021/12/28 13:29:58;;;;;;;57.95;29.55;;;;;;;2.67;100.00;99301.28;10143367;28;20070;-68
2021/12/28 13:35:00;;;;;;;64.72;34.13;;;;;;;2.56;100.00;99307.97;10120404;28;20101;-69
2021/12/28 13:40:10;;;;;;;60.17;32.20;;;;;;;2.57;100.00;99312.25;10124254;28;20081;-68
2021/12/28 13:45:09;;;;;;;62.92;33.50;;;;;;;2.51;100.00;99305.38;10142119;28;20054;-68
2021/12/28 13:50:12;;;;;;;61.08;33.47;;;;;;;2.51;100.00;99299.97;10142183;28;20161;-68
2021/12/28 13:55:10;;;;;;;61.65;31.15;;;;;;;2.48;100.00;99287.88;10144205;28;20097;-69
2021/12/28 14:00:11;;;;;;;61.95;32.50;;;;;;;2.48;100.00;99276.28;10145002;28;20501;-68
2021/12/28 14:05:09;;;;;;;57.42;31.40;;;;;;;2.43;100.00;99270.97;10150075;28;20481;-69
2021/12/28 14:10:06;;;;;;;60.63;30.35;;;;;;;2.47;100.00;99270.09;10151967;28;20046;-68
2021/12/28 14:15:03;;;;;;;63.90;31.52;;;;;;;2.41;100.00;99248.91;10135117;28;20090;-69
2021/12/28 14:20:01;;;;;;;63.00;32.08;;;;;;;2.50;100.00;99252.50;10125923;28;20101;-69
2021/12/28 14:24:58;;;;;;;65.13;31.70;;;;;;;2.46;100.00;99240.69;10138742;28;20898;-69
2021/12/28 14:30:04;;;;;;;57.00;29.00;;;;;;;2.39;100.00;99234.91;10139453;28;20067;-69
2021/12/28 14:35:05;;;;;;;58.92;30.77;;;;;;;2.33;100.00;99225.34;10134074;28;20105;-69
2021/12/28 14:40:11;;;;;;;60.50;32.05;;;;;;;2.18;100.00;99224.53;10142216;28;20438;-69
2021/12/28 14:45:12;;;;;;;61.10;30.67;;;;;;;2.32;100.00;99216.41;10122887;28;20077;-68
2021/12/28 14:50:18;;;;;;;58.78;28.63;;;;;;;2.21;100.00;99213.13;10134508;28;20100;-69
2021/12/28 14:55:18;;;;;;;61.05;31.63;;;;;;;2.34;100.00;99208.03;10134874;28;20050;-69
2021/12/28 15:00:18;;;;;;;54.22;29.65;;;;;;;2.29;100.00;99217.81;10142124;28;20525;-69
2021/12/28 15:05:14;;;;;;;61.30;29.65;;;;;;;2.15;100.00;99217.00;10121804;28;20406;-68
2021/12/28 15:10:11;;;;;;;58.38;31.25;;;;;;;2.31;100.00;99217.53;10131166;28;20054;-69
2021/12/28 15:15:12;;;;;;;58.40;29.40;;;;;;;2.16;100.00;99221.31;10143783;28;20089;-69
2021/12/28 15:20:11;;;;;;;51.30;28.50;;;;;;;2.25;100.00;99224.94;10130764;28;20121;-69
2021/12/28 15:25:09;;;;;;;56.47;29.13;;;;;;;2.34;100.00;99222.31;10129905;28;20096;-69
2021/12/28 15:30:11;;;;;;;56.58;28.63;;;;;;;2.34;100.00;99229.63;10133118;28;20092;-69
2021/12/28 15:35:09;;;;;;;50.10;28.10;;;;;;;2.37;100.00;99216.34;10141526;28;20055;-69
2021/12/28 15:40:09;;;;;;;57.55;29.77;;;;;;;2.33;100.00;99220.72;10143169;28;20047;-69
2021/12/28 15:45:06;;;;;;;51.28;27.25;;;;;;;2.33;100.00;99215.34;10145592;28;20050;-68
2021/12/28 15:50:06;;;;;;;46.60;27.15;;;;;;;2.25;100.00;99214.13;10129508;28;20112;-68
2021/12/28 15:55:04;;;;;;;53.40;27.77;;;;;;;2.28;100.00;99218.94;10125948;28;20125;-69
2021/12/28 16:00:07;;;;;;;52.33;28.48;;;;;;;2.21;100.00;99207.75;10130172;28;20082;-69
2021/12/28 16:05:04;;;;;;;50.15;28.00;;;;;;;2.33;100.00;99222.63;10138950;28;20094;-69
2021/12/28 16:10:03;;;;;;;51.25;29.95;;;;;;;2.40;100.00;99210.34;10140765;28;20055;-68
2021/12/28 16:15:00;;;;;;;47.13;27.98;;;;;;;2.36;100.00;99222.03;10133667;28;20059;-69
2021/12/28 16:19:57;;;;;;;49.38;27.05;;;;;;;2.34;100.00;99222.31;10144692;28;20043;-69
2021/12/28 16:24:53;;;;;;;46.90;25.75;;;;;;;2.39;100.00;99205.22;10133471;28;20077;-69
2021/12/28 16:29:50;;;;;;;53.05;28.35;;;;;;;2.45;100.00;99206.75;10141342;28;20130;-68
2021/12/28 16:34:46;;;;;;;50.35;27.30;;;;;;;2.48;100.00;99216.91;10146843;28;20093;-69
2021/12/28 16:39:43;;;;;;;53.10;27.48;;;;;;;2.47;100.00;99226.13;10133941;28;20038;-69
2021/12/28 16:44:39;;;;;;;45.50;24.95;;;;;;;2.51;100.00;99221.72;10143558;28;20074;-69
2021/12/28 16:49:36;;;;;;;49.38;25.10;;;;;;;2.52;100.00;99228.72;10138187;28;20433;-69
2021/12/28 16:54:32;;;;;;;48.25;25.63;;;;;;;2.53;100.00;99230.31;10135304;28;20546;-71
2021/12/28 16:59:29;;;;;;;46.75;27.00;;;;;;;2.67;100.00;99228.41;10127331;28;20043;-71
2021/12/28 17:04:27;;;;;;;50.45;27.63;;;;;;;2.57;100.00;99236.69;10139618;28;20042;-69
2021/12/28 17:09:24;;;;;;;53.25;27.90;;;;;;;2.56;100.00;99235.13;10145047;28;20096;-69
2021/12/28 17:14:35;;;;;;;57.65;27.40;;;;;;;2.59;100.00;99234.50;10125753;28;20063;-69
2021/12/28 17:19:31;;;;;;;57.80;29.23;;;;;;;2.50;100.00;99229.00;10137381;28;20393;-71
2021/12/28 17:24:28;;;;;;;51.65;27.75;;;;;;;2.51;100.00;99243.31;10134731;28;20090;-68
2021/12/28 17:29:24;;;;;;;58.05;29.70;;;;;;;2.54;100.00;99229.22;10142824;28;20137;-69
2021/12/28 17:34:23;;;;;;;56.53;28.73;;;;;;;2.61;100.00;99226.91;10130785;28;20046;-69
2021/12/28 17:39:19;;;;;;;61.83;31.00;;;;;;;2.46;100.00;99227.22;10141492;28;20046;-69
2021/12/28 17:44:16;;;;;;;51.55;26.90;;;;;;;2.60;100.00;99219.94;10135422;28;20051;-69
2021/12/28 17:49:13;;;;;;;55.25;29.90;;;;;;;2.55;100.00;99228.09;10135443;28;20054;-69
2021/12/28 17:54:10;;;;;;;52.08;27.55;;;;;;;2.54;100.00;99226.53;10153166;28;20043;-69
2021/12/28 17:59:07;;;;;;;51.40;27.48;;;;;;;2.58;100.00;99227.53;10143648;28;20457;-68
2021/12/28 18:04:03;;;;;;;56.25;29.52;;;;;;;2.47;100.00;99236.91;10145101;28;20046;-68
2021/12/28 18:09:00;;;;;;;50.05;26.77;;;;;;;2.58;100.00;99237.53;10145209;28;20050;-69
2021/12/28 18:13:56;;;;;;;48.28;27.13;;;;;;;2.54;100.00;99258.91;10151665;28;20042;-69
2021/12/28 18:18:53;;;;;;;57.78;29.10;;;;;;;2.49;100.00;99250.91;10153113;28;20077;-70
2021/12/28 18:23:50;;;;;;;56.33;29.60;;;;;;;2.60;100.00;99246.09;10149942;28;20068;-70
2021/12/28 18:28:47;;;;;;;62.42;29.50;;;;;;;2.48;100.00;99249.28;10147229;28;20497;-71
2021/12/28 18:33:45;;;;;;;52.83;28.83;;;;;;;2.51;100.00;99248.72;10149480;28;20506;-71
2021/12/28 18:38:41;;;;;;;60.67;30.60;;;;;;;2.43;100.00;99242.09;10127966;28;20449;-71
2021/12/28 18:43:38;;;;;;;51.33;27.77;;;;;;;2.53;100.00;99247.31;10137688;28;20073;-71
2021/12/28 18:48:35;;;;;;;52.95;30.08;;;;;;;2.59;100.00;99250.69;10144094;28;20105;-69
2021/12/28 18:53:32;;;;;;;49.70;27.58;;;;;;;2.62;100.00;99254.69;10145689;28;20050;-70
2021/12/28 18:58:32;;;;;;;64.55;29.75;;;;;;;2.51;100.00;99264.91;10135334;28;20129;-70
2021/12/28 19:03:29;;;;;;;46.67;25.27;;;;;;;2.55;100.00;99260.47;10145280;28;20042;-70
2021/12/28 19:08:25;;;;;;;43.67;26.50;;;;;;;2.67;100.00;99263.50;10137981;28;20061;-69
2021/12/28 19:13:25;;;;;;;58.75;28.52;;;;;;;2.48;100.00;99270.88;10128298;28;20047;-69
2021/12/28 19:18:22;;;;;;;50.38;27.15;;;;;;;2.59;100.00;99269.59;10134581;28;20047;-69
2021/12/28 19:23:20;;;;;;;55.10;28.40;;;;;;;2.37;100.00;99280.25;10135884;28;20047;-69
2021/12/28 19:28:37;;;;;;;43.17;24.42;;;;;;;2.47;100.00;99275.47;10140484;28;20052;-69
2021/12/28 19:33:34;;;;;;;45.80;24.77;;;;;;;2.51;100.00;99270.28;10147214;28;20097;-69
2021/12/28 19:38:30;;;;;;;46.70;25.77;;;;;;;2.61;100.00;99275.47;10138565;28;20088;-70
2021/12/28 19:43:27;;;;;;;42.45;25.42;;;;;;;2.53;100.00;99279.69;10129007;28;20509;-69
2021/12/28 19:48:25;;;;;;;43.20;24.65;;;;;;;2.59;100.00;99272.28;10149043;28;20093;-70
2021/12/28 19:53:22;;;;;;;47.00;26.63;;;;;;;2.63;100.00;99278.69;10132344;28;20177;-69
2021/12/28 19:58:19;;;;;;;45.42;25.45;;;;;;;2.69;100.00;99284.78;10120077;28;20104;-70
2021/12/28 20:03:15;;;;;;;46.45;25.55;;;;;;;2.64;100.00;99288.38;10144725;28;20113;-70
2021/12/28 20:08:13;;;;;;;45.05;24.75;;;;;;;2.60;100.00;99284.69;10142788;28;20513;-70
2021/12/28 20:13:10;;;;;;;46.20;25.50;;;;;;;2.58;100.00;99297.69;10139986;28;20344;-69
2021/12/28 20:18:11;;;;;;;47.70;26.30;;;;;;;2.57;100.00;99301.47;10144137;28;20050;-70
2021/12/28 20:23:09;;;;;;;43.42;24.83;;;;;;;2.63;100.00;99311.06;10129588;28;20093;-69
2021/12/28 20:28:06;;;;;;;45.72;25.48;;;;;;;2.63;100.00;99308.38;10144245;28;20054;-69
2021/12/28 20:33:04;;;;;;;42.95;24.17;;;;;;;2.66;100.00;99315.06;10132158;28;20502;-69
2021/12/28 20:38:00;;;;;;;41.63;23.52;;;;;;;2.65;100.00;99314.28;10141809;28;20484;-69
2021/12/28 20:42:57;;;;;;;46.30;25.23;;;;;;;2.64;100.00;99323.44;10141336;28;20086;-69
2021/12/28 20:47:55;;;;;;;48.35;26.58;;;;;;;2.69;100.00;99325.25;10141334;28;20740;-69
2021/12/28 20:52:52;;;;;;;43.50;24.00;;;;;;;2.87;100.00;99353.25;10139686;28;20082;-69
2021/12/28 20:57:50;;;;;;;40.85;22.88;;;;;;;2.92;100.00;99355.84;10124981;28;20050;-71
2021/12/28 21:02:47;;;;;;;50.20;27.92;;;;;;;2.86;100.00;99367.88;10139632;28;20046;-73
2021/12/28 21:07:47;;;;;;;39.95;21.73;;;;;;;2.89;100.00;99375.34;10150003;28;20045;-69
2021/12/28 21:12:45;;;;;;;47.15;24.40;;;;;;;2.83;100.00;99373.84;10143684;28;20047;-69
2021/12/28 21:17:43;;;;;;;41.58;24.33;;;;;;;2.89;100.00;99391.56;10138292;28;20042;-69
2021/12/28 21:22:41;;;;;;;43.25;23.00;;;;;;;2.94;100.00;99396.84;10144980;28;20078;-69
2021/12/28 21:27:42;;;;;;;39.90;21.67;;;;;;;2.90;100.00;99390.44;10133667;28;20465;-69
2021/12/28 21:32:39;;;;;;;39.30;22.65;;;;;;;2.89;100.00;99395.06;10143326;28;20113;-69
2021/12/28 21:37:39;;;;;;;41.92;22.98;;;;;;;2.91;100.00;99392.84;10136833;28;20066;-70
2021/12/28 21:42:36;;;;;;;42.42;22.45;;;;;;;2.80;100.00;99406.84;10145078;28;20085;-69
2021/12/28 21:47:33;;;;;;;44.50;22.85;;;;;;;2.83;100.00;99414.34;10139106;28;20066;-69
2021/12/28 21:52:29;;;;;;;46.10;23.95;;;;;;;2.91;100.00;99424.47;10142728;28;20726;-72
2021/12/28 21:57:27;;;;;;;41.75;22.65;;;;;;;2.89;100.00;99427.44;10128386;28;20104;-72
2021/12/28 22:02:24;;;;;;;41.15;22.30;;;;;;;2.90;100.00;99428.25;10142116;28;20052;-71
2021/12/28 22:07:21;;;;;;;42.35;22.98;;;;;;;2.91;100.00;99436.06;10135010;28;20549;-71
2021/12/28 22:12:18;;;;;;;46.53;24.70;;;;;;;2.89;100.00;99449.06;10128783;28;20137;-70
2021/12/28 22:17:15;;;;;;;39.88;22.13;;;;;;;2.90;100.00;99449.84;10131717;28;20070;-70
2021/12/28 22:22:13;;;;;;;36.45;21.35;;;;;;;2.94;100.00;99458.97;10139377;28;20096;-69
2021/12/28 22:27:10;;;;;;;43.90;25.05;;;;;;;2.98;100.00;99469.97;10147129;28;20285;-70
2021/12/28 22:32:07;;;;;;;39.15;21.83;;;;;;;2.95;100.00;99484.88;10144053;28;20050;-70
2021/12/28 22:37:04;;;;;;;36.00;20.13;;;;;;;2.99;100.00;99485.88;10135346;28;20054;-70
2021/12/28 22:42:03;;;;;;;34.00;20.33;;;;;;;3.01;100.00;99489.06;10143828;28;20105;-71